sensor_id;sensor_type;location;lat;lon;timestamp;P1;durP1;ratioP1;P2;durP2;ratioP2
2362;SDS011;1192;51.664;7.626;2022-08-03T00:01:43;1057.43;;;977.23;;
2362;SDS011;1192;51.664;7.626;2022-08-03T00:04:10;1044.33;;;964.87;;
2362;SDS011;1192;51.664;7.626;2022-08-03T00:06:37;1053.03;;;973.23;;
2362;SDS011;1192;51.664;7.626;2022-08-03T00:09:04;1060.13;;;979.57;;
2362;SDS011;1192;51.664;7.626;2022-08-03T00:11:31;1063.77;;;982.70;;
2362;SDS011;1192;51.664;7.626;2022-08-03T00:13:58;1048.80;;;968.30;;
2362;SDS011;1192;51.664;7.626;2022-08-03T00:16:26;1056.17;;;975.63;;
2362;SDS011;1192;51.664;7.626;2022-08-03T00:18:53;1056.37;;;976.17;;
2362;SDS011;1192;51.664;7.626;2022-08-03T00:21:19;1058.67;;;978.40;;
2362;SDS011;1192;51.664;7.626;2022-08-03T00:23:46;1046.37;;;966.37;;
2362;SDS011;1192;51.664;7.626;2022-08-03T00:26:13;1062.63;;;982.53;;
2362;SDS011;1192;51.664;7.626;2022-08-03T00:28:40;1053.57;;;972.87;;
2362;SDS011;1192;51.664;7.626;2022-08-03T00:31:07;1054.57;;;973.97;;
2362;SDS011;1192;51.664;7.626;2022-08-03T00:33:35;1059.67;;;979.30;;
2362;SDS011;1192;51.664;7.626;2022-08-03T00:36:01;1064.53;;;983.90;;
2362;SDS011;1192;51.664;7.626;2022-08-03T00:38:28;1054.00;;;973.97;;
2362;SDS011;1192;51.664;7.626;2022-08-03T00:40:55;1047.57;;;967.17;;
2362;SDS011;1192;51.664;7.626;2022-08-03T00:43:23;1055.80;;;975.30;;
2362;SDS011;1192;51.664;7.626;2022-08-03T00:45:51;1065.87;;;984.93;;
2362;SDS011;1192;51.664;7.626;2022-08-03T00:48:18;1050.63;;;970.63;;
2362;SDS011;1192;51.664;7.626;2022-08-03T00:50:47;1043.97;;;963.87;;
2362;SDS011;1192;51.664;7.626;2022-08-03T00:53:13;1051.50;;;971.63;;
2362;SDS011;1192;51.664;7.626;2022-08-03T00:55:40;1052.47;;;972.17;;
2362;SDS011;1192;51.664;7.626;2022-08-03T00:58:08;1042.30;;;962.43;;
2362;SDS011;1192;51.664;7.626;2022-08-03T01:00:36;1048.43;;;968.23;;
2362;SDS011;1192;51.664;7.626;2022-08-03T01:03:05;1054.27;;;973.87;;
2362;SDS011;1192;51.664;7.626;2022-08-03T01:05:34;1054.17;;;973.80;;
2362;SDS011;1192;51.664;7.626;2022-08-03T01:08:10;1043.97;;;964.03;;
2362;SDS011;1192;51.664;7.626;2022-08-03T01:10:44;1041.50;;;961.30;;
2362;SDS011;1192;51.664;7.626;2022-08-03T01:13:20;1061.93;;;980.97;;
2362;SDS011;1192;51.664;7.626;2022-08-03T01:15:52;1057.07;;;976.77;;
2362;SDS011;1192;51.664;7.626;2022-08-03T01:18:27;1036.10;;;956.63;;
2362;SDS011;1192;51.664;7.626;2022-08-03T01:21:01;1035.27;;;955.30;;
2362;SDS011;1192;51.664;7.626;2022-08-03T01:23:50;1031.50;;;951.33;;
2362;SDS011;1192;51.664;7.626;2022-08-03T01:26:34;1034.23;;;953.83;;
2362;SDS011;1192;51.664;7.626;2022-08-03T01:29:19;1030.50;;;950.83;;
2362;SDS011;1192;51.664;7.626;2022-08-03T01:32:07;1037.90;;;957.73;;
2362;SDS011;1192;51.664;7.626;2022-08-03T01:34:39;1043.57;;;963.10;;
2362;SDS011;1192;51.664;7.626;2022-08-03T01:37:08;1048.40;;;967.47;;
2362;SDS011;1192;51.664;7.626;2022-08-03T01:39:37;1046.30;;;965.73;;
2362;SDS011;1192;51.664;7.626;2022-08-03T01:42:06;1038.03;;;957.63;;
2362;SDS011;1192;51.664;7.626;2022-08-03T01:44:36;1043.37;;;963.10;;
2362;SDS011;1192;51.664;7.626;2022-08-03T01:47:06;1040.57;;;960.00;;
2362;SDS011;1192;51.664;7.626;2022-08-03T01:49:36;1026.73;;;946.57;;
2362;SDS011;1192;51.664;7.626;2022-08-03T01:52:05;1030.53;;;950.63;;
2362;SDS011;1192;51.664;7.626;2022-08-03T01:54:33;1045.10;;;964.63;;
2362;SDS011;1192;51.664;7.626;2022-08-03T01:57:02;1040.73;;;960.37;;
2362;SDS011;1192;51.664;7.626;2022-08-03T01:59:29;1039.10;;;958.70;;
2362;SDS011;1192;51.664;7.626;2022-08-03T02:02:00;1034.47;;;954.27;;
2362;SDS011;1192;51.664;7.626;2022-08-03T02:04:28;1033.83;;;953.63;;
2362;SDS011;1192;51.664;7.626;2022-08-03T02:06:56;1032.23;;;952.33;;
2362;SDS011;1192;51.664;7.626;2022-08-03T02:09:24;1031.60;;;951.73;;
2362;SDS011;1192;51.664;7.626;2022-08-03T02:11:52;1019.83;;;940.53;;
2362;SDS011;1192;51.664;7.626;2022-08-03T02:14:21;1030.67;;;950.60;;
2362;SDS011;1192;51.664;7.626;2022-08-03T02:16:48;1043.83;;;963.17;;
2362;SDS011;1192;51.664;7.626;2022-08-03T02:19:17;1031.47;;;951.07;;
2362;SDS011;1192;51.664;7.626;2022-08-03T02:21:45;1029.43;;;949.33;;
2362;SDS011;1192;51.664;7.626;2022-08-03T02:24:12;1020.70;;;941.27;;
2362;SDS011;1192;51.664;7.626;2022-08-03T02:26:39;1034.93;;;954.93;;
2362;SDS011;1192;51.664;7.626;2022-08-03T02:29:09;1024.00;;;944.03;;
2362;SDS011;1192;51.664;7.626;2022-08-03T02:31:38;1042.30;;;961.58;;
2362;SDS011;1192;51.664;7.626;2022-08-03T02:34:07;1030.13;;;949.73;;
2362;SDS011;1192;51.664;7.626;2022-08-03T02:36:40;1009.50;;;931.83;;
2362;SDS011;1192;51.664;7.626;2022-08-03T02:39:10;1023.97;;;948.07;;
2362;SDS011;1192;51.664;7.626;2022-08-03T02:41:40;1017.20;;;942.37;;
2362;SDS011;1192;51.664;7.626;2022-08-03T02:44:10;1004.17;;;930.57;;
2362;SDS011;1192;51.664;7.626;2022-08-03T02:46:39;1014.10;;;940.67;;
2362;SDS011;1192;51.664;7.626;2022-08-03T02:49:09;1027.63;;;953.60;;
2362;SDS011;1192;51.664;7.626;2022-08-03T02:51:39;1007.57;;;934.90;;
2362;SDS011;1192;51.664;7.626;2022-08-03T02:54:07;1035.50;;;961.80;;
2362;SDS011;1192;51.664;7.626;2022-08-03T02:56:35;1011.07;;;937.77;;
2362;SDS011;1192;51.664;7.626;2022-08-03T02:59:04;1010.90;;;938.53;;
2362;SDS011;1192;51.664;7.626;2022-08-03T03:01:31;1002.50;;;930.50;;
2362;SDS011;1192;51.664;7.626;2022-08-03T03:03:59;1011.70;;;939.07;;
2362;SDS011;1192;51.664;7.626;2022-08-03T03:06:26;1005.10;;;932.83;;
2362;SDS011;1192;51.664;7.626;2022-08-03T03:08:55;1023.67;;;951.07;;
2362;SDS011;1192;51.664;7.626;2022-08-03T03:11:22;1012.73;;;940.27;;
2362;SDS011;1192;51.664;7.626;2022-08-03T03:13:51;1011.83;;;939.17;;
2362;SDS011;1192;51.664;7.626;2022-08-03T03:16:19;1014.37;;;941.30;;
2362;SDS011;1192;51.664;7.626;2022-08-03T03:18:46;1021.50;;;948.13;;
2362;SDS011;1192;51.664;7.626;2022-08-03T03:21:15;999.83;;;928.13;;
2362;SDS011;1192;51.664;7.626;2022-08-03T03:23:44;1013.23;;;940.47;;
2362;SDS011;1192;51.664;7.626;2022-08-03T03:26:14;1018.00;;;945.47;;
2362;SDS011;1192;51.664;7.626;2022-08-03T03:28:41;992.87;;;921.43;;
2362;SDS011;1192;51.664;7.626;2022-08-03T03:31:09;1006.57;;;934.57;;
2362;SDS011;1192;51.664;7.626;2022-08-03T03:33:36;992.97;;;921.27;;
2362;SDS011;1192;51.664;7.626;2022-08-03T03:36:04;1000.57;;;928.13;;
2362;SDS011;1192;51.664;7.626;2022-08-03T03:38:32;996.13;;;923.90;;
2362;SDS011;1192;51.664;7.626;2022-08-03T03:40:59;1016.57;;;943.67;;
2362;SDS011;1192;51.664;7.626;2022-08-03T03:43:28;1012.27;;;939.60;;
2362;SDS011;1192;51.664;7.626;2022-08-03T03:45:54;1015.80;;;942.23;;
2362;SDS011;1192;51.664;7.626;2022-08-03T03:48:23;1007.13;;;933.87;;
2362;SDS011;1192;51.664;7.626;2022-08-03T03:50:50;996.97;;;924.27;;
2362;SDS011;1192;51.664;7.626;2022-08-03T03:53:17;996.03;;;923.25;;
2362;SDS011;1192;51.664;7.626;2022-08-03T03:55:44;1009.63;;;936.33;;
2362;SDS011;1192;51.664;7.626;2022-08-03T03:58:11;995.00;;;921.83;;
2362;SDS011;1192;51.664;7.626;2022-08-03T04:00:39;1002.17;;;928.77;;
2362;SDS011;1192;51.664;7.626;2022-08-03T04:03:09;1003.53;;;929.90;;
2362;SDS011;1192;51.664;7.626;2022-08-03T04:05:36;995.42;;;921.95;;
2362;SDS011;1192;51.664;7.626;2022-08-03T04:08:21;996.08;;;922.92;;
2362;SDS011;1192;51.664;7.626;2022-08-03T04:11:07;1006.00;;;932.58;;
2362;SDS011;1192;51.664;7.626;2022-08-03T04:13:41;1012.28;;;938.95;;
2362;SDS011;1192;51.664;7.626;2022-08-03T04:16:13;1007.00;;;933.47;;
2362;SDS011;1192;51.664;7.626;2022-08-03T04:18:43;1000.67;;;927.60;;
2362;SDS011;1192;51.664;7.626;2022-08-03T04:21:16;1003.00;;;929.60;;
2362;SDS011;1192;51.664;7.626;2022-08-03T04:23:47;996.58;;;923.97;;
2362;SDS011;1192;51.664;7.626;2022-08-03T04:26:19;998.33;;;925.47;;
2362;SDS011;1192;51.664;7.626;2022-08-03T04:28:47;991.58;;;918.92;;
2362;SDS011;1192;51.664;7.626;2022-08-03T04:31:18;1003.30;;;930.27;;
2362;SDS011;1192;51.664;7.626;2022-08-03T04:33:47;1007.10;;;933.97;;
2362;SDS011;1192;51.664;7.626;2022-08-03T04:36:16;993.28;;;920.50;;
2362;SDS011;1192;51.664;7.626;2022-08-03T04:38:50;995.97;;;922.67;;
2362;SDS011;1192;51.664;7.626;2022-08-03T04:41:21;999.88;;;925.75;;
2362;SDS011;1192;51.664;7.626;2022-08-03T04:43:50;998.38;;;923.78;;
2362;SDS011;1192;51.664;7.626;2022-08-03T04:46:22;998.95;;;924.83;;
2362;SDS011;1192;51.664;7.626;2022-08-03T04:48:52;1015.67;;;941.00;;
2362;SDS011;1192;51.664;7.626;2022-08-03T04:51:19;988.58;;;914.45;;
2362;SDS011;1192;51.664;7.626;2022-08-03T04:53:46;1008.70;;;933.72;;
2362;SDS011;1192;51.664;7.626;2022-08-03T04:56:13;1007.40;;;931.70;;
2362;SDS011;1192;51.664;7.626;2022-08-03T04:58:40;1005.92;;;930.00;;
2362;SDS011;1192;51.664;7.626;2022-08-03T05:01:07;1006.72;;;931.47;;
2362;SDS011;1192;51.664;7.626;2022-08-03T05:03:35;1003.20;;;927.22;;
2362;SDS011;1192;51.664;7.626;2022-08-03T05:06:02;991.40;;;916.47;;
2362;SDS011;1192;51.664;7.626;2022-08-03T05:08:29;1005.05;;;929.53;;
2362;SDS011;1192;51.664;7.626;2022-08-03T05:10:55;991.97;;;915.80;;
2362;SDS011;1192;51.664;7.626;2022-08-03T05:13:23;1005.60;;;929.40;;
2362;SDS011;1192;51.664;7.626;2022-08-03T05:15:49;1010.80;;;933.63;;
2362;SDS011;1192;51.664;7.626;2022-08-03T05:18:16;1006.35;;;928.92;;
2362;SDS011;1192;51.664;7.626;2022-08-03T05:20:44;1003.80;;;926.28;;
2362;SDS011;1192;51.664;7.626;2022-08-03T05:23:11;1010.00;;;931.63;;
2362;SDS011;1192;51.664;7.626;2022-08-03T05:25:38;1008.90;;;929.42;;
2362;SDS011;1192;51.664;7.626;2022-08-03T05:28:04;994.28;;;914.38;;
2362;SDS011;1192;51.664;7.626;2022-08-03T05:30:31;1014.03;;;935.40;;
2362;SDS011;1192;51.664;7.626;2022-08-03T05:32:58;1024.22;;;942.38;;
2362;SDS011;1192;51.664;7.626;2022-08-03T05:35:25;1009.20;;;928.35;;
2362;SDS011;1192;51.664;7.626;2022-08-03T05:37:54;1003.80;;;922.15;;
2362;SDS011;1192;51.664;7.626;2022-08-03T05:40:20;1025.28;;;942.25;;
2362;SDS011;1192;51.664;7.626;2022-08-03T05:42:47;1013.67;;;928.53;;
2362;SDS011;1192;51.664;7.626;2022-08-03T05:45:14;1005.90;;;923.60;;
2362;SDS011;1192;51.664;7.626;2022-08-03T05:47:42;997.20;;;917.40;;
2362;SDS011;1192;51.664;7.626;2022-08-03T05:50:09;1021.67;;;941.22;;
2362;SDS011;1192;51.664;7.626;2022-08-03T05:52:36;1042.40;;;959.90;;
2362;SDS011;1192;51.664;7.626;2022-08-03T05:55:05;1037.70;;;955.40;;
2362;SDS011;1192;51.664;7.626;2022-08-03T05:57:33;1043.30;;;958.40;;
2362;SDS011;1192;51.664;7.626;2022-08-03T06:00:00;1045.50;;;961.70;;
2362;SDS011;1192;51.664;7.626;2022-08-03T06:02:29;1057.73;;;972.93;;
2362;SDS011;1192;51.664;7.626;2022-08-03T06:04:56;1069.87;;;982.90;;
2362;SDS011;1192;51.664;7.626;2022-08-03T06:07:23;1080.97;;;991.23;;
2362;SDS011;1192;51.664;7.626;2022-08-03T06:09:50;1083.50;;;993.37;;
2362;SDS011;1192;51.664;7.626;2022-08-03T06:12:18;1073.80;;;983.40;;
2362;SDS011;1192;51.664;7.626;2022-08-03T06:14:45;1085.63;;;996.13;;
2362;SDS011;1192;51.664;7.626;2022-08-03T06:17:12;1094.93;;;999.90;;
2362;SDS011;1192;51.664;7.626;2022-08-03T06:19:38;1101.63;;;999.90;;
2362;SDS011;1192;51.664;7.626;2022-08-03T06:22:05;1105.70;;;999.90;;
2362;SDS011;1192;51.664;7.626;2022-08-03T06:24:32;1100.60;;;999.90;;
2362;SDS011;1192;51.664;7.626;2022-08-03T06:26:58;1094.90;;;999.90;;
2362;SDS011;1192;51.664;7.626;2022-08-03T06:29:26;1103.93;;;999.90;;
2362;SDS011;1192;51.664;7.626;2022-08-03T06:31:53;1114.60;;;999.90;;
2362;SDS011;1192;51.664;7.626;2022-08-03T06:34:20;1116.40;;;999.90;;
2362;SDS011;1192;51.664;7.626;2022-08-03T06:36:46;1126.63;;;999.90;;
2362;SDS011;1192;51.664;7.626;2022-08-03T06:39:15;1110.83;;;999.90;;
2362;SDS011;1192;51.664;7.626;2022-08-03T06:41:42;1114.27;;;999.90;;
2362;SDS011;1192;51.664;7.626;2022-08-03T06:44:09;1117.87;;;999.90;;
2362;SDS011;1192;51.664;7.626;2022-08-03T06:46:37;1131.60;;;999.90;;
2362;SDS011;1192;51.664;7.626;2022-08-03T06:49:04;1134.37;;;999.90;;
2362;SDS011;1192;51.664;7.626;2022-08-03T06:51:31;1150.07;;;999.90;;
2362;SDS011;1192;51.664;7.626;2022-08-03T06:53:58;1131.77;;;999.90;;
2362;SDS011;1192;51.664;7.626;2022-08-03T06:56:25;1134.93;;;999.90;;
2362;SDS011;1192;51.664;7.626;2022-08-03T06:58:51;1139.30;;;999.90;;
2362;SDS011;1192;51.664;7.626;2022-08-03T07:01:18;1149.03;;;999.90;;
2362;SDS011;1192;51.664;7.626;2022-08-03T07:03:46;1131.87;;;999.90;;
2362;SDS011;1192;51.664;7.626;2022-08-03T07:06:13;1138.07;;;999.90;;
2362;SDS011;1192;51.664;7.626;2022-08-03T07:08:39;1137.63;;;999.90;;
2362;SDS011;1192;51.664;7.626;2022-08-03T07:11:06;1145.67;;;999.90;;
2362;SDS011;1192;51.664;7.626;2022-08-03T07:13:33;1151.87;;;999.90;;
2362;SDS011;1192;51.664;7.626;2022-08-03T07:15:59;1152.10;;;999.90;;
2362;SDS011;1192;51.664;7.626;2022-08-03T07:18:26;1150.73;;;999.90;;
2362;SDS011;1192;51.664;7.626;2022-08-03T07:20:54;1157.37;;;999.90;;
2362;SDS011;1192;51.664;7.626;2022-08-03T07:23:21;1164.53;;;999.90;;
2362;SDS011;1192;51.664;7.626;2022-08-03T07:25:48;1154.37;;;999.90;;
2362;SDS011;1192;51.664;7.626;2022-08-03T07:28:15;1165.67;;;999.90;;
2362;SDS011;1192;51.664;7.626;2022-08-03T07:30:42;1158.53;;;999.90;;
2362;SDS011;1192;51.664;7.626;2022-08-03T07:33:09;1164.43;;;999.90;;
2362;SDS011;1192;51.664;7.626;2022-08-03T07:35:35;1175.17;;;999.90;;
2362;SDS011;1192;51.664;7.626;2022-08-03T07:38:03;1172.17;;;999.90;;
2362;SDS011;1192;51.664;7.626;2022-08-03T07:40:30;1171.17;;;999.90;;
2362;SDS011;1192;51.664;7.626;2022-08-03T07:42:57;1171.00;;;999.90;;
2362;SDS011;1192;51.664;7.626;2022-08-03T07:45:24;1163.37;;;999.90;;
2362;SDS011;1192;51.664;7.626;2022-08-03T07:47:50;1165.17;;;999.90;;
2362;SDS011;1192;51.664;7.626;2022-08-03T07:50:17;1171.57;;;999.90;;
2362;SDS011;1192;51.664;7.626;2022-08-03T07:52:44;1160.93;;;999.90;;
2362;SDS011;1192;51.664;7.626;2022-08-03T07:55:15;1172.90;;;999.90;;
2362;SDS011;1192;51.664;7.626;2022-08-03T07:57:42;1161.30;;;999.90;;
2362;SDS011;1192;51.664;7.626;2022-08-03T08:00:12;1176.07;;;999.90;;
2362;SDS011;1192;51.664;7.626;2022-08-03T08:02:40;1166.47;;;999.90;;
2362;SDS011;1192;51.664;7.626;2022-08-03T08:05:08;1176.60;;;999.90;;
2362;SDS011;1192;51.664;7.626;2022-08-03T08:07:35;1173.40;;;999.90;;
2362;SDS011;1192;51.664;7.626;2022-08-03T08:10:02;1163.23;;;999.90;;
2362;SDS011;1192;51.664;7.626;2022-08-03T08:12:31;1159.23;;;999.90;;
2362;SDS011;1192;51.664;7.626;2022-08-03T08:14:57;1177.30;;;999.90;;
2362;SDS011;1192;51.664;7.626;2022-08-03T08:17:25;1165.90;;;999.90;;
2362;SDS011;1192;51.664;7.626;2022-08-03T08:19:52;1167.73;;;999.90;;
2362;SDS011;1192;51.664;7.626;2022-08-03T08:22:19;1181.57;;;999.90;;
2362;SDS011;1192;51.664;7.626;2022-08-03T08:24:46;1178.10;;;999.90;;
2362;SDS011;1192;51.664;7.626;2022-08-03T08:27:13;1186.20;;;999.90;;
2362;SDS011;1192;51.664;7.626;2022-08-03T08:29:41;1194.40;;;999.90;;
2362;SDS011;1192;51.664;7.626;2022-08-03T08:32:08;1196.53;;;999.90;;
2362;SDS011;1192;51.664;7.626;2022-08-03T08:34:35;1188.07;;;999.90;;
2362;SDS011;1192;51.664;7.626;2022-08-03T08:37:03;1195.40;;;999.90;;
2362;SDS011;1192;51.664;7.626;2022-08-03T08:39:30;1196.63;;;999.90;;
2362;SDS011;1192;51.664;7.626;2022-08-03T08:41:56;1208.47;;;999.90;;
2362;SDS011;1192;51.664;7.626;2022-08-03T08:44:23;1203.03;;;999.90;;
2362;SDS011;1192;51.664;7.626;2022-08-03T08:46:51;1198.90;;;999.90;;
2362;SDS011;1192;51.664;7.626;2022-08-03T08:49:20;1199.50;;;999.90;;
2362;SDS011;1192;51.664;7.626;2022-08-03T08:51:51;1211.33;;;999.90;;
2362;SDS011;1192;51.664;7.626;2022-08-03T08:54:21;1209.83;;;999.90;;
2362;SDS011;1192;51.664;7.626;2022-08-03T08:56:49;1212.47;;;999.90;;
2362;SDS011;1192;51.664;7.626;2022-08-03T08:59:17;1219.57;;;999.90;;
2362;SDS011;1192;51.664;7.626;2022-08-03T09:01:44;1202.20;;;999.90;;
2362;SDS011;1192;51.664;7.626;2022-08-03T09:04:12;1212.37;;;999.90;;
2362;SDS011;1192;51.664;7.626;2022-08-03T09:06:39;1209.40;;;999.90;;
2362;SDS011;1192;51.664;7.626;2022-08-03T09:09:06;1218.63;;;999.90;;
2362;SDS011;1192;51.664;7.626;2022-08-03T09:11:33;1208.83;;;999.90;;
2362;SDS011;1192;51.664;7.626;2022-08-03T09:13:59;1213.27;;;999.90;;
2362;SDS011;1192;51.664;7.626;2022-08-03T09:16:26;1203.73;;;999.90;;
2362;SDS011;1192;51.664;7.626;2022-08-03T09:18:53;1210.87;;;999.90;;
2362;SDS011;1192;51.664;7.626;2022-08-03T09:21:22;1220.07;;;999.90;;
2362;SDS011;1192;51.664;7.626;2022-08-03T09:23:51;1202.10;;;999.90;;
2362;SDS011;1192;51.664;7.626;2022-08-03T09:26:19;1220.47;;;999.90;;
2362;SDS011;1192;51.664;7.626;2022-08-03T09:28:53;1204.57;;;999.90;;
2362;SDS011;1192;51.664;7.626;2022-08-03T09:31:28;1208.47;;;999.90;;
2362;SDS011;1192;51.664;7.626;2022-08-03T09:33:59;1214.97;;;999.90;;
2362;SDS011;1192;51.664;7.626;2022-08-03T09:36:39;1211.53;;;999.90;;
2362;SDS011;1192;51.664;7.626;2022-08-03T09:39:07;1216.60;;;999.90;;
2362;SDS011;1192;51.664;7.626;2022-08-03T09:41:36;1212.60;;;999.90;;
2362;SDS011;1192;51.664;7.626;2022-08-03T09:44:03;1211.90;;;999.90;;
2362;SDS011;1192;51.664;7.626;2022-08-03T09:46:31;1211.03;;;999.90;;
2362;SDS011;1192;51.664;7.626;2022-08-03T09:49:12;1208.47;;;999.90;;
2362;SDS011;1192;51.664;7.626;2022-08-03T09:51:40;1208.63;;;999.90;;
2362;SDS011;1192;51.664;7.626;2022-08-03T09:54:07;1200.03;;;999.90;;
2362;SDS011;1192;51.664;7.626;2022-08-03T09:56:40;1207.03;;;999.90;;
2362;SDS011;1192;51.664;7.626;2022-08-03T09:59:09;1206.43;;;999.90;;
2362;SDS011;1192;51.664;7.626;2022-08-03T10:01:37;1201.13;;;999.90;;
2362;SDS011;1192;51.664;7.626;2022-08-03T10:04:10;1205.83;;;999.90;;
2362;SDS011;1192;51.664;7.626;2022-08-03T10:06:40;1204.57;;;999.90;;
2362;SDS011;1192;51.664;7.626;2022-08-03T10:09:08;1195.13;;;999.90;;
2362;SDS011;1192;51.664;7.626;2022-08-03T10:11:38;1201.27;;;999.90;;
2362;SDS011;1192;51.664;7.626;2022-08-03T10:14:05;1205.10;;;999.90;;
2362;SDS011;1192;51.664;7.626;2022-08-03T10:16:34;1208.00;;;999.90;;
2362;SDS011;1192;51.664;7.626;2022-08-03T10:19:03;1201.50;;;999.90;;
2362;SDS011;1192;51.664;7.626;2022-08-03T10:21:32;1205.77;;;999.90;;
2362;SDS011;1192;51.664;7.626;2022-08-03T10:24:03;1193.97;;;999.90;;
2362;SDS011;1192;51.664;7.626;2022-08-03T10:26:31;1195.90;;;999.90;;
2362;SDS011;1192;51.664;7.626;2022-08-03T10:29:02;1188.57;;;999.90;;
2362;SDS011;1192;51.664;7.626;2022-08-03T10:31:34;1182.20;;;999.90;;
2362;SDS011;1192;51.664;7.626;2022-08-03T10:34:05;1194.40;;;999.90;;
2362;SDS011;1192;51.664;7.626;2022-08-03T10:36:36;1194.43;;;999.90;;
2362;SDS011;1192;51.664;7.626;2022-08-03T10:39:07;1199.73;;;999.90;;
2362;SDS011;1192;51.664;7.626;2022-08-03T10:41:37;1190.90;;;999.90;;
2362;SDS011;1192;51.664;7.626;2022-08-03T10:44:10;1199.73;;;999.90;;
2362;SDS011;1192;51.664;7.626;2022-08-03T10:46:42;1189.73;;;999.90;;
2362;SDS011;1192;51.664;7.626;2022-08-03T10:49:11;1196.77;;;999.90;;
2362;SDS011;1192;51.664;7.626;2022-08-03T10:51:39;1191.93;;;999.90;;
2362;SDS011;1192;51.664;7.626;2022-08-03T10:54:08;1202.30;;;999.90;;
2362;SDS011;1192;51.664;7.626;2022-08-03T10:57:48;1196.90;;;999.90;;
2362;SDS011;1192;51.664;7.626;2022-08-03T11:00:17;1185.10;;;999.90;;
2362;SDS011;1192;51.664;7.626;2022-08-03T11:03:00;1179.13;;;999.90;;
2362;SDS011;1192;51.664;7.626;2022-08-03T11:05:29;1193.47;;;999.90;;
2362;SDS011;1192;51.664;7.626;2022-08-03T11:10:46;1190.77;;;999.90;;
2362;SDS011;1192;51.664;7.626;2022-08-03T11:13:15;1184.90;;;999.90;;
2362;SDS011;1192;51.664;7.626;2022-08-03T11:15:43;1192.63;;;999.90;;
2362;SDS011;1192;51.664;7.626;2022-08-03T11:18:11;1196.23;;;999.90;;
2362;SDS011;1192;51.664;7.626;2022-08-03T11:20:45;1185.33;;;999.90;;
2362;SDS011;1192;51.664;7.626;2022-08-03T11:23:13;1185.07;;;999.90;;
2362;SDS011;1192;51.664;7.626;2022-08-03T11:28:45;1189.43;;;999.90;;
2362;SDS011;1192;51.664;7.626;2022-08-03T11:34:12;1190.33;;;999.90;;
2362;SDS011;1192;51.664;7.626;2022-08-03T11:39:48;1182.17;;;999.90;;
2362;SDS011;1192;51.664;7.626;2022-08-03T11:45:14;1181.87;;;999.90;;
2362;SDS011;1192;51.664;7.626;2022-08-03T11:47:43;1196.03;;;999.90;;
2362;SDS011;1192;51.664;7.626;2022-08-03T11:50:10;1186.10;;;999.90;;
2362;SDS011;1192;51.664;7.626;2022-08-03T11:52:38;1192.33;;;999.90;;
2362;SDS011;1192;51.664;7.626;2022-08-03T11:55:16;1185.97;;;999.90;;
2362;SDS011;1192;51.664;7.626;2022-08-03T11:57:46;1177.83;;;999.90;;
2362;SDS011;1192;51.664;7.626;2022-08-03T12:00:23;1199.57;;;999.90;;
2362;SDS011;1192;51.664;7.626;2022-08-03T12:02:55;1189.57;;;999.90;;
2362;SDS011;1192;51.664;7.626;2022-08-03T12:05:36;1197.77;;;999.90;;
2362;SDS011;1192;51.664;7.626;2022-08-03T12:08:05;1198.67;;;999.90;;
2362;SDS011;1192;51.664;7.626;2022-08-03T12:10:32;1188.53;;;999.90;;
2362;SDS011;1192;51.664;7.626;2022-08-03T12:13:01;1185.20;;;999.90;;
2362;SDS011;1192;51.664;7.626;2022-08-03T12:15:32;1181.60;;;999.90;;
2362;SDS011;1192;51.664;7.626;2022-08-03T12:18:00;1188.73;;;999.90;;
2362;SDS011;1192;51.664;7.626;2022-08-03T12:20:29;1178.17;;;999.90;;
2362;SDS011;1192;51.664;7.626;2022-08-03T12:23:01;1187.27;;;999.90;;
2362;SDS011;1192;51.664;7.626;2022-08-03T12:25:29;1188.13;;;999.90;;
2362;SDS011;1192;51.664;7.626;2022-08-03T12:28:06;1186.03;;;999.90;;
2362;SDS011;1192;51.664;7.626;2022-08-03T12:30:35;1181.13;;;999.90;;
2362;SDS011;1192;51.664;7.626;2022-08-03T12:33:12;1190.23;;;999.90;;
2362;SDS011;1192;51.664;7.626;2022-08-03T12:35:40;1192.60;;;999.90;;
2362;SDS011;1192;51.664;7.626;2022-08-03T12:38:07;1187.47;;;999.90;;
2362;SDS011;1192;51.664;7.626;2022-08-03T12:40:35;1183.87;;;999.90;;
2362;SDS011;1192;51.664;7.626;2022-08-03T12:43:10;1185.83;;;999.90;;
2362;SDS011;1192;51.664;7.626;2022-08-03T12:45:38;1187.77;;;999.90;;
2362;SDS011;1192;51.664;7.626;2022-08-03T12:48:07;1185.27;;;999.90;;
2362;SDS011;1192;51.664;7.626;2022-08-03T12:50:36;1187.47;;;999.90;;
2362;SDS011;1192;51.664;7.626;2022-08-03T12:53:04;1177.87;;;999.90;;
2362;SDS011;1192;51.664;7.626;2022-08-03T12:55:32;1189.30;;;999.90;;
2362;SDS011;1192;51.664;7.626;2022-08-03T12:57:59;1175.20;;;999.90;;
2362;SDS011;1192;51.664;7.626;2022-08-03T13:00:27;1189.57;;;999.90;;
2362;SDS011;1192;51.664;7.626;2022-08-03T13:02:58;1175.57;;;999.90;;
2362;SDS011;1192;51.664;7.626;2022-08-03T13:05:26;1167.33;;;999.90;;
2362;SDS011;1192;51.664;7.626;2022-08-03T13:07:53;1170.00;;;999.90;;
2362;SDS011;1192;51.664;7.626;2022-08-03T13:10:26;1179.80;;;999.90;;
2362;SDS011;1192;51.664;7.626;2022-08-03T13:12:55;1172.07;;;999.90;;
2362;SDS011;1192;51.664;7.626;2022-08-03T13:15:24;1177.57;;;999.90;;
2362;SDS011;1192;51.664;7.626;2022-08-03T13:17:53;1172.50;;;999.90;;
2362;SDS011;1192;51.664;7.626;2022-08-03T13:20:20;1175.13;;;999.90;;
2362;SDS011;1192;51.664;7.626;2022-08-03T13:22:47;1176.43;;;999.90;;
2362;SDS011;1192;51.664;7.626;2022-08-03T13:25:14;1167.53;;;999.90;;
2362;SDS011;1192;51.664;7.626;2022-08-03T13:27:41;1177.10;;;999.90;;
2362;SDS011;1192;51.664;7.626;2022-08-03T13:30:08;1176.30;;;999.90;;
2362;SDS011;1192;51.664;7.626;2022-08-03T13:32:37;1166.00;;;999.90;;
2362;SDS011;1192;51.664;7.626;2022-08-03T13:35:04;1172.77;;;999.90;;
2362;SDS011;1192;51.664;7.626;2022-08-03T13:37:31;1176.07;;;999.90;;
2362;SDS011;1192;51.664;7.626;2022-08-03T13:39:58;1177.67;;;999.90;;
2362;SDS011;1192;51.664;7.626;2022-08-03T13:42:26;1178.57;;;999.90;;
2362;SDS011;1192;51.664;7.626;2022-08-03T13:44:54;1177.77;;;999.90;;
2362;SDS011;1192;51.664;7.626;2022-08-03T13:47:21;1174.47;;;999.90;;
2362;SDS011;1192;51.664;7.626;2022-08-03T13:49:49;1178.57;;;999.90;;
2362;SDS011;1192;51.664;7.626;2022-08-03T13:52:17;1189.57;;;999.90;;
2362;SDS011;1192;51.664;7.626;2022-08-03T13:54:44;1177.20;;;999.90;;
2362;SDS011;1192;51.664;7.626;2022-08-03T13:57:10;1192.53;;;999.90;;
2362;SDS011;1192;51.664;7.626;2022-08-03T13:59:37;1177.93;;;999.90;;
2362;SDS011;1192;51.664;7.626;2022-08-03T14:02:04;1178.07;;;999.90;;
2362;SDS011;1192;51.664;7.626;2022-08-03T14:04:31;1183.27;;;999.90;;
2362;SDS011;1192;51.664;7.626;2022-08-03T14:06:59;1182.23;;;999.90;;
2362;SDS011;1192;51.664;7.626;2022-08-03T14:09:25;1176.63;;;999.90;;
2362;SDS011;1192;51.664;7.626;2022-08-03T14:11:52;1186.67;;;999.90;;
2362;SDS011;1192;51.664;7.626;2022-08-03T14:14:19;1177.37;;;999.90;;
2362;SDS011;1192;51.664;7.626;2022-08-03T14:16:46;1191.80;;;999.90;;
2362;SDS011;1192;51.664;7.626;2022-08-03T14:19:12;1175.03;;;999.90;;
2362;SDS011;1192;51.664;7.626;2022-08-03T14:21:40;1176.27;;;999.90;;
2362;SDS011;1192;51.664;7.626;2022-08-03T14:24:08;1186.97;;;999.90;;
2362;SDS011;1192;51.664;7.626;2022-08-03T14:26:35;1172.87;;;999.90;;
2362;SDS011;1192;51.664;7.626;2022-08-03T14:29:01;1188.87;;;999.90;;
2362;SDS011;1192;51.664;7.626;2022-08-03T14:31:29;1181.63;;;999.90;;
2362;SDS011;1192;51.664;7.626;2022-08-03T14:33:56;1167.43;;;999.90;;